sensor_id;sensor_type;location;lat;lon;timestamp;pressure;altitude;pressure_sealevel;temperature;humidity
32747;BME280;19118;50.860;13.662;2023-08-07T00:04:30;95735.47;;;14.73;100.00
32747;BME280;19118;50.860;13.662;2023-08-07T00:09:30;95732.13;;;14.93;100.00
32747;BME280;19118;50.860;13.662;2023-08-07T00:14:31;95731.00;;;14.83;100.00
32747;BME280;19118;50.860;13.662;2023-08-07T00:19:31;95736.97;;;15.01;100.00
32747;BME280;19118;50.860;13.662;2023-08-07T00:24:31;95738.44;;;15.19;100.00
32747;BME280;19118;50.860;13.662;2023-08-07T00:29:32;95745.59;;;15.13;100.00
32747;BME280;19118;50.860;13.662;2023-08-07T00:34:33;95734.16;;;14.80;100.00
32747;BME280;19118;50.860;13.662;2023-08-07T00:39:34;95742.31;;;15.06;100.00
32747;BME280;19118;50.860;13.662;2023-08-07T00:44:34;95741.56;;;15.53;100.00
32747;BME280;19118;50.860;13.662;2023-08-07T00:49:35;95747.78;;;15.21;100.00
32747;BME280;19118;50.860;13.662;2023-08-07T00:54:37;95741.97;;;14.92;100.00
32747;BME280;19118;50.860;13.662;2023-08-07T00:59:38;95748.28;;;15.18;100.00
32747;BME280;19118;50.860;13.662;2023-08-07T01:04:39;95752.41;;;14.99;100.00
32747;BME280;19118;50.860;13.662;2023-08-07T01:09:40;95748.72;;;15.05;100.00
32747;BME280;19118;50.860;13.662;2023-08-07T01:14:52;95755.59;;;14.96;100.00
32747;BME280;19118;50.860;13.662;2023-08-07T01:19:56;95745.97;;;14.95;100.00
32747;BME280;19118;50.860;13.662;2023-08-07T01:24:57;95739.78;;;15.21;100.00
32747;BME280;19118;50.860;13.662;2023-08-07T01:30:23;95741.50;;;15.00;100.00
32747;BME280;19118;50.860;13.662;2023-08-07T01:35:30;95730.59;;;15.02;100.00
32747;BME280;19118;50.860;13.662;2023-08-07T01:40:33;95737.72;;;15.33;100.00
32747;BME280;19118;50.860;13.662;2023-08-07T01:45:35;95736.00;;;15.17;100.00
32747;BME280;19118;50.860;13.662;2023-08-07T01:50:35;95743.00;;;15.28;100.00
32747;BME280;19118;50.860;13.662;2023-08-07T01:55:36;95737.25;;;15.47;100.00
32747;BME280;19118;50.860;13.662;2023-08-07T02:00:36;95739.09;;;15.41;100.00
32747;BME280;19118;50.860;13.662;2023-08-07T02:05:37;95748.72;;;15.05;100.00
32747;BME280;19118;50.860;13.662;2023-08-07T02:10:37;95751.88;;;14.97;100.00
32747;BME280;19118;50.860;13.662;2023-08-07T02:15:37;95753.56;;;15.08;100.00
32747;BME280;19118;50.860;13.662;2023-08-07T02:20:38;95754.03;;;15.05;100.00
32747;BME280;19118;50.860;13.662;2023-08-07T02:25:38;95758.31;;;15.06;100.00
32747;BME280;19118;50.860;13.662;2023-08-07T02:30:39;95771.06;;;15.04;100.00
32747;BME280;19118;50.860;13.662;2023-08-07T02:35:39;95757.41;;;14.90;100.00
32747;BME280;19118;50.860;13.662;2023-08-07T02:40:39;95767.84;;;14.97;100.00
32747;BME280;19118;50.860;13.662;2023-08-07T02:45:41;95764.28;;;15.18;100.00
32747;BME280;19118;50.860;13.662;2023-08-07T02:50:41;95766.25;;;14.96;100.00
32747;BME280;19118;50.860;13.662;2023-08-07T02:55:43;95768.03;;;14.85;100.00
32747;BME280;19118;50.860;13.662;2023-08-07T03:00:44;95765.66;;;14.89;100.00
32747;BME280;19118;50.860;13.662;2023-08-07T03:05:51;95779.16;;;14.82;100.00
32747;BME280;19118;50.860;13.662;2023-08-07T03:10:52;95771.94;;;14.77;100.00
32747;BME280;19118;50.860;13.662;2023-08-07T03:16:04;95786.44;;;14.92;100.00
32747;BME280;19118;50.860;13.662;2023-08-07T03:21:05;95789.06;;;14.33;100.00
32747;BME280;19118;50.860;13.662;2023-08-07T03:26:07;95812.56;;;14.41;100.00
32747;BME280;19118;50.860;13.662;2023-08-07T03:31:09;95820.38;;;14.25;100.00
32747;BME280;19118;50.860;13.662;2023-08-07T03:36:11;95827.50;;;14.20;100.00
32747;BME280;19118;50.860;13.662;2023-08-07T03:41:12;95828.44;;;14.36;100.00
32747;BME280;19118;50.860;13.662;2023-08-07T03:46:15;95839.63;;;14.38;100.00
32747;BME280;19118;50.860;13.662;2023-08-07T03:51:15;95837.38;;;14.03;100.00
32747;BME280;19118;50.860;13.662;2023-08-07T03:56:26;95847.47;;;14.22;100.00
32747;BME280;19118;50.860;13.662;2023-08-07T04:01:26;95845.97;;;13.88;100.00
32747;BME280;19118;50.860;13.662;2023-08-07T04:06:27;95860.69;;;13.74;100.00
32747;BME280;19118;50.860;13.662;2023-08-07T04:11:29;95883.19;;;13.49;100.00
32747;BME280;19118;50.860;13.662;2023-08-07T04:16:30;95885.16;;;13.76;100.00
32747;BME280;19118;50.860;13.662;2023-08-07T04:21:31;95894.41;;;13.56;100.00
32747;BME280;19118;50.860;13.662;2023-08-07T04:26:31;95911.97;;;13.57;100.00
32747;BME280;19118;50.860;13.662;2023-08-07T04:31:32;95910.34;;;13.56;100.00
32747;BME280;19118;50.860;13.662;2023-08-07T04:36:32;95919.44;;;13.94;100.00
32747;BME280;19118;50.860;13.662;2023-08-07T04:41:33;95912.97;;;14.28;100.00
32747;BME280;19118;50.860;13.662;2023-08-07T04:46:34;95910.13;;;14.57;100.00
32747;BME280;19118;50.860;13.662;2023-08-07T04:51:34;95924.44;;;14.51;100.00
32747;BME280;19118;50.860;13.662;2023-08-07T04:56:34;95909.78;;;14.32;100.00
32747;BME280;19118;50.860;13.662;2023-08-07T05:01:35;95901.47;;;14.45;100.00
32747;BME280;19118;50.860;13.662;2023-08-07T05:06:35;95892.78;;;14.76;100.00
32747;BME280;19118;50.860;13.662;2023-08-07T05:11:35;95889.41;;;14.86;100.00
32747;BME280;19118;50.860;13.662;2023-08-07T05:16:36;95902.47;;;14.88;100.00
32747;BME280;19118;50.860;13.662;2023-08-07T05:21:36;95906.97;;;15.14;100.00
32747;BME280;19118;50.860;13.662;2023-08-07T05:26:36;95902.91;;;15.38;100.00
32747;BME280;19118;50.860;13.662;2023-08-07T05:31:37;95906.88;;;15.68;100.00
32747;BME280;19118;50.860;13.662;2023-08-07T05:36:37;95914.09;;;16.15;100.00
32747;BME280;19118;50.860;13.662;2023-08-07T05:41:39;95914.75;;;15.90;100.00
32747;BME280;19118;50.860;13.662;2023-08-07T05:46:40;95925.41;;;16.32;100.00
32747;BME280;19118;50.860;13.662;2023-08-07T05:51:40;95924.38;;;16.53;100.00
32747;BME280;19118;50.860;13.662;2023-08-07T05:56:40;95941.47;;;16.42;100.00
32747;BME280;19118;50.860;13.662;2023-08-07T06:01:41;95934.28;;;16.00;100.00
32747;BME280;19118;50.860;13.662;2023-08-07T06:06:41;95951.50;;;15.83;100.00
32747;BME280;19118;50.860;13.662;2023-08-07T06:11:43;95948.50;;;15.74;100.00
32747;BME280;19118;50.860;13.662;2023-08-07T06:16:43;95965.53;;;15.68;100.00
32747;BME280;19118;50.860;13.662;2023-08-07T06:21:43;95973.97;;;15.92;100.00
32747;BME280;19118;50.860;13.662;2023-08-07T06:26:44;95985.97;;;15.94;100.00
32747;BME280;19118;50.860;13.662;2023-08-07T06:31:44;95987.66;;;16.06;100.00
32747;BME280;19118;50.860;13.662;2023-08-07T06:36:44;95997.31;;;16.12;100.00
32747;BME280;19118;50.860;13.662;2023-08-07T06:41:45;96005.19;;;15.96;100.00
32747;BME280;19118;50.860;13.662;2023-08-07T06:46:47;96014.13;;;16.12;100.00
32747;BME280;19118;50.860;13.662;2023-08-07T06:51:47;96009.66;;;16.28;100.00
32747;BME280;19118;50.860;13.662;2023-08-07T06:56:47;96013.06;;;16.60;100.00
32747;BME280;19118;50.860;13.662;2023-08-07T07:01:48;96022.25;;;16.85;100.00
32747;BME280;19118;50.860;13.662;2023-08-07T07:06:48;96022.97;;;16.65;100.00
32747;BME280;19118;50.860;13.662;2023-08-07T07:11:49;96017.38;;;16.67;100.00
32747;BME280;19118;50.860;13.662;2023-08-07T07:16:49;96015.06;;;16.33;100.00
32747;BME280;19118;50.860;13.662;2023-08-07T07:21:50;96026.22;;;16.30;100.00
32747;BME280;19118;50.860;13.662;2023-08-07T07:26:50;96038.84;;;15.43;100.00
32747;BME280;19118;50.860;13.662;2023-08-07T07:31:50;96036.97;;;15.71;100.00
32747;BME280;19118;50.860;13.662;2023-08-07T07:36:51;96043.66;;;15.20;100.00
32747;BME280;19118;50.860;13.662;2023-08-07T07:41:53;96052.25;;;15.81;100.00
32747;BME280;19118;50.860;13.662;2023-08-07T07:46:54;96052.81;;;16.62;100.00
32747;BME280;19118;50.860;13.662;2023-08-07T07:51:54;96063.84;;;16.71;100.00
32747;BME280;19118;50.860;13.662;2023-08-07T07:56:54;96082.41;;;16.93;100.00
32747;BME280;19118;50.860;13.662;2023-08-07T08:01:55;96077.00;;;17.50;100.00
32747;BME280;19118;50.860;13.662;2023-08-07T08:06:55;96085.31;;;17.59;100.00
32747;BME280;19118;50.860;13.662;2023-08-07T08:11:56;96090.47;;;18.01;100.00
32747;BME280;19118;50.860;13.662;2023-08-07T08:16:56;96099.53;;;18.46;100.00
32747;BME280;19118;50.860;13.662;2023-08-07T08:21:57;96102.50;;;18.19;100.00
32747;BME280;19118;50.860;13.662;2023-08-07T08:26:57;96108.69;;;16.69;100.00
32747;BME280;19118;50.860;13.662;2023-08-07T08:31:57;96117.78;;;16.04;100.00
32747;BME280;19118;50.860;13.662;2023-08-07T08:36:58;96125.16;;;16.23;100.00
32747;BME280;19118;50.860;13.662;2023-08-07T08:41:59;96133.88;;;16.78;100.00
32747;BME280;19118;50.860;13.662;2023-08-07T08:47:00;96123.47;;;17.44;100.00
32747;BME280;19118;50.860;13.662;2023-08-07T08:52:01;96125.25;;;18.31;100.00
32747;BME280;19118;50.860;13.662;2023-08-07T08:57:03;96135.72;;;18.58;100.00
32747;BME280;19118;50.860;13.662;2023-08-07T09:02:04;96136.50;;;18.39;100.00
32747;BME280;19118;50.860;13.662;2023-08-07T09:07:05;96147.75;;;18.86;100.00
32747;BME280;19118;50.860;13.662;2023-08-07T09:12:08;96159.03;;;18.73;100.00
32747;BME280;19118;50.860;13.662;2023-08-07T09:17:13;96158.91;;;19.14;100.00
32747;BME280;19118;50.860;13.662;2023-08-07T09:22:15;96155.88;;;19.51;100.00
32747;BME280;19118;50.860;13.662;2023-08-07T09:27:16;96167.56;;;18.29;100.00
32747;BME280;19118;50.860;13.662;2023-08-07T09:32:17;96180.81;;;17.73;100.00
32747;BME280;19118;50.860;13.662;2023-08-07T09:37:18;96170.75;;;18.16;100.00
32747;BME280;19118;50.860;13.662;2023-08-07T09:42:19;96177.16;;;18.10;100.00
32747;BME280;19118;50.860;13.662;2023-08-07T09:47:19;96174.25;;;18.27;100.00
32747;BME280;19118;50.860;13.662;2023-08-07T09:52:20;96179.59;;;18.32;100.00
32747;BME280;19118;50.860;13.662;2023-08-07T09:57:20;96173.97;;;18.28;100.00
32747;BME280;19118;50.860;13.662;2023-08-07T10:02:21;96172.91;;;18.45;100.00
32747;BME280;19118;50.860;13.662;2023-08-07T10:07:21;96191.56;;;17.89;100.00
32747;BME280;19118;50.860;13.662;2023-08-07T10:12:22;96184.94;;;18.22;100.00
32747;BME280;19118;50.860;13.662;2023-08-07T10:17:23;96177.69;;;19.19;100.00
32747;BME280;19118;50.860;13.662;2023-08-07T10:22:25;96182.31;;;19.83;100.00
32747;BME280;19118;50.860;13.662;2023-08-07T10:27:27;96175.19;;;19.48;100.00
32747;BME280;19118;50.860;13.662;2023-08-07T10:32:30;96178.84;;;18.82;100.00
32747;BME280;19118;50.860;13.662;2023-08-07T10:37:41;96174.09;;;19.54;100.00
32747;BME280;19118;50.860;13.662;2023-08-07T10:53:05;96185.16;;;20.46;100.00
32747;BME280;19118;50.860;13.662;2023-08-07T10:58:05;96190.28;;;21.06;100.00
32747;BME280;19118;50.860;13.662;2023-08-07T11:03:08;96198.06;;;20.78;100.00
32747;BME280;19118;50.860;13.662;2023-08-07T11:08:08;96199.03;;;19.55;100.00
32747;BME280;19118;50.860;13.662;2023-08-07T11:13:09;96204.75;;;18.16;100.00
32747;BME280;19118;50.860;13.662;2023-08-07T11:18:10;96196.66;;;18.00;100.00
32747;BME280;19118;50.860;13.662;2023-08-07T11:23:11;96189.47;;;19.23;100.00
32747;BME280;19118;50.860;13.662;2023-08-07T11:28:11;96181.38;;;19.48;100.00
32747;BME280;19118;50.860;13.662;2023-08-07T11:33:12;96190.44;;;20.12;100.00
32747;BME280;19118;50.860;13.662;2023-08-07T11:38:12;96181.97;;;20.39;100.00
32747;BME280;19118;50.860;13.662;2023-08-07T11:43:12;96219.06;;;20.32;100.00
32747;BME280;19118;50.860;13.662;2023-08-07T11:48:13;96216.06;;;18.69;100.00
32747;BME280;19118;50.860;13.662;2023-08-07T11:53:13;96222.75;;;18.97;100.00
32747;BME280;19118;50.860;13.662;2023-08-07T11:58:14;96219.91;;;17.85;100.00
32747;BME280;19118;50.860;13.662;2023-08-07T12:03:32;96202.06;;;19.23;100.00
32747;BME280;19118;50.860;13.662;2023-08-07T12:08:38;96206.03;;;19.61;100.00
32747;BME280;19118;50.860;13.662;2023-08-07T12:13:44;96213.59;;;19.28;100.00
32747;BME280;19118;50.860;13.662;2023-08-07T12:18:49;96224.66;;;19.91;100.00
32747;BME280;19118;50.860;13.662;2023-08-07T12:23:50;96226.72;;;20.04;100.00
32747;BME280;19118;50.860;13.662;2023-08-07T12:28:52;96231.56;;;20.08;100.00
32747;BME280;19118;50.860;13.662;2023-08-07T12:33:53;96232.22;;;21.07;100.00
32747;BME280;19118;50.860;13.662;2023-08-07T12:38:53;96230.78;;;21.14;100.00
32747;BME280;19118;50.860;13.662;2023-08-07T12:43:54;96229.03;;;20.71;100.00
32747;BME280;19118;50.860;13.662;2023-08-07T12:48:54;96218.41;;;21.18;100.00
32747;BME280;19118;50.860;13.662;2023-08-07T12:53:54;96219.28;;;21.38;100.00
32747;BME280;19118;50.860;13.662;2023-08-07T12:58:55;96236.81;;;21.35;99.40
32747;BME280;19118;50.860;13.662;2023-08-07T13:03:55;96246.84;;;19.02;100.00
32747;BME280;19118;50.860;13.662;2023-08-07T13:08:55;96237.16;;;19.31;100.00
32747;BME280;19118;50.860;13.662;2023-08-07T13:13:56;96240.16;;;19.19;100.00
32747;BME280;19118;50.860;13.662;2023-08-07T13:18:56;96257.56;;;18.61;100.00
32747;BME280;19118;50.860;13.662;2023-08-07T13:23:57;96262.03;;;18.20;100.00
32747;BME280;19118;50.860;13.662;2023-08-07T13:28:57;96256.00;;;18.70;100.00
32747;BME280;19118;50.860;13.662;2023-08-07T13:33:58;96256.50;;;18.67;100.00
32747;BME280;19118;50.860;13.662;2023-08-07T13:38:58;96254.84;;;18.36;100.00
32747;BME280;19118;50.860;13.662;2023-08-07T13:44:00;96269.50;;;18.18;100.00
32747;BME280;19118;50.860;13.662;2023-08-07T13:49:00;96261.88;;;19.03;100.00
32747;BME280;19118;50.860;13.662;2023-08-07T13:54:01;96262.19;;;20.01;100.00
32747;BME280;19118;50.860;13.662;2023-08-07T13:59:01;96269.50;;;20.45;100.00
32747;BME280;19118;50.860;13.662;2023-08-07T14:04:02;96276.72;;;20.50;100.00
32747;BME280;19118;50.860;13.662;2023-08-07T14:09:02;96285.31;;;20.52;100.00
32747;BME280;19118;50.860;13.662;2023-08-07T14:14:03;96278.25;;;20.61;100.00
32747;BME280;19118;50.860;13.662;2023-08-07T14:19:03;96300.06;;;19.95;100.00
32747;BME280;19118;50.860;13.662;2023-08-07T14:24:04;96320.28;;;18.70;100.00
32747;BME280;19118;50.860;13.662;2023-08-07T14:29:05;96363.97;;;23.92;100.00
32747;BME280;19118;50.860;13.662;2023-08-07T14:34:05;96372.19;;;18.59;100.00
32747;BME280;19118;50.860;13.662;2023-08-07T14:39:06;96366.03;;;17.96;100.00
32747;BME280;19118;50.860;13.662;2023-08-07T14:44:06;96362.44;;;18.32;100.00
32747;BME280;19118;50.860;13.662;2023-08-07T14:49:06;96376.88;;;18.26;100.00
32747;BME280;19118;50.860;13.662;2023-08-07T14:54:07;96375.13;;;18.57;100.00
32747;BME280;19118;50.860;13.662;2023-08-07T14:59:08;96380.81;;;18.76;100.00
32747;BME280;19118;50.860;13.662;2023-08-07T15:04:09;96387.81;;;19.13;100.00
32747;BME280;19118;50.860;13.662;2023-08-07T15:09:10;96379.69;;;20.15;100.00
32747;BME280;19118;50.860;13.662;2023-08-07T15:14:11;96388.75;;;21.38;100.00
32747;BME280;19118;50.860;13.662;2023-08-07T15:19:11;96378.22;;;21.75;100.00
32747;BME280;19118;50.860;13.662;2023-08-07T15:24:12;96403.53;;;21.01;100.00
32747;BME280;19118;50.860;13.662;2023-08-07T15:29:12;96396.03;;;20.93;100.00
32747;BME280;19118;50.860;13.662;2023-08-07T15:34:12;96393.91;;;20.90;100.00
32747;BME280;19118;50.860;13.662;2023-08-07T15:39:13;96403.28;;;20.92;100.00
32747;BME280;19118;50.860;13.662;2023-08-07T15:44:13;96400.59;;;20.43;100.00
32747;BME280;19118;50.860;13.662;2023-08-07T15:49:13;96407.66;;;21.33;100.00
32747;BME280;19118;50.860;13.662;2023-08-07T15:54:14;96410.34;;;21.28;100.00
32747;BME280;19118;50.860;13.662;2023-08-07T15:59:14;96412.38;;;18.64;100.00
32747;BME280;19118;50.860;13.662;2023-08-07T16:04:15;96405.34;;;17.26;100.00
32747;BME280;19118;50.860;13.662;2023-08-07T16:09:15;96410.44;;;17.28;100.00
32747;BME280;19118;50.860;13.662;2023-08-07T16:14:16;96424.97;;;16.61;100.00
32747;BME280;19118;50.860;13.662;2023-08-07T16:19:17;96434.09;;;16.43;100.00
32747;BME280;19118;50.860;13.662;2023-08-07T16:24:18;96429.44;;;16.12;100.00
32747;BME280;19118;50.860;13.662;2023-08-07T16:29:19;96431.44;;;16.43;100.00
32747;BME280;19118;50.860;13.662;2023-08-07T16:34:20;96436.81;;;15.88;100.00
32747;BME280;19118;50.860;13.662;2023-08-07T16:39:20;96440.97;;;16.39;100.00
32747;BME280;19118;50.860;13.662;2023-08-07T16:44:20;96455.47;;;16.43;100.00
32747;BME280;19118;50.860;13.662;2023-08-07T16:49:21;96462.69;;;17.13;100.00
32747;BME280;19118;50.860;13.662;2023-08-07T16:54:21;96473.00;;;17.05;100.00
32747;BME280;19118;50.860;13.662;2023-08-07T16:59:22;96473.44;;;16.53;100.00
32747;BME280;19118;50.860;13.662;2023-08-07T17:04:22;96465.22;;;16.16;100.00
32747;BME280;19118;50.860;13.662;2023-08-07T17:09:23;96464.38;;;16.32;100.00
32747;BME280;19118;50.860;13.662;2023-08-07T17:14:23;96489.53;;;16.19;100.00
32747;BME280;19118;50.860;13.662;2023-08-07T17:19:24;96495.69;;;16.58;100.00
32747;BME280;19118;50.860;13.662;2023-08-07T17:24:24;96492.13;;;16.14;100.00
32747;BME280;19118;50.860;13.662;2023-08-07T17:29:24;96500.88;;;15.93;100.00
32747;BME280;19118;50.860;13.662;2023-08-07T17:34:25;96497.97;;;16.11;100.00
32747;BME280;19118;50.860;13.662;2023-08-07T17:39:25;96499.69;;;16.00;100.00
32747;BME280;19118;50.860;13.662;2023-08-07T17:44:26;96497.25;;;15.99;100.00
32747;BME280;19118;50.860;13.662;2023-08-07T17:49:26;96497.81;;;15.84;100.00
32747;BME280;19118;50.860;13.662;2023-08-07T17:54:26;96522.47;;;15.91;100.00
32747;BME280;19118;50.860;13.662;2023-08-07T17:59:27;96526.59;;;15.82;100.00
32747;BME280;19118;50.860;13.662;2023-08-07T18:04:27;96538.59;;;15.39;100.00
32747;BME280;19118;50.860;13.662;2023-08-07T18:09:28;96552.41;;;15.36;100.00
32747;BME280;19118;50.860;13.662;2023-08-07T18:14:28;96557.19;;;15.34;100.00
32747;BME280;19118;50.860;13.662;2023-08-07T18:19:29;96543.19;;;15.27;100.00
32747;BME280;19118;50.860;13.662;2023-08-07T18:24:29;96546.66;;;15.28;100.00
32747;BME280;19118;50.860;13.662;2023-08-07T18:29:29;96550.25;;;15.33;100.00
32747;BME280;19118;50.860;13.662;2023-08-07T18:34:30;96565.53;;;15.26;100.00
32747;BME280;19118;50.860;13.662;2023-08-07T18:39:31;96571.69;;;15.27;100.00
32747;BME280;19118;50.860;13.662;2023-08-07T18:44:32;96580.88;;;15.48;100.00
32747;BME280;19118;50.860;13.662;2023-08-07T18:49:32;96577.59;;;15.57;100.00
32747;BME280;19118;50.860;13.662;2023-08-07T18:54:33;96586.78;;;15.21;100.00
32747;BME280;19118;50.860;13.662;2023-08-07T18:59:33;96593.72;;;14.59;100.00
32747;BME280;19118;50.860;13.662;2023-08-07T19:04:34;96591.84;;;14.36;100.00
32747;BME280;19118;50.860;13.662;2023-08-07T19:09:34;96591.50;;;14.32;100.00
32747;BME280;19118;50.860;13.662;2023-08-07T19:14:35;96603.25;;;14.01;100.00
32747;BME280;19118;50.860;13.662;2023-08-07T19:19:35;96606.88;;;14.18;100.00
32747;BME280;19118;50.860;13.662;2023-08-07T19:24:36;96605.69;;;14.14;100.00
32747;BME280;19118;50.860;13.662;2023-08-07T19:29:37;96611.00;;;14.03;100.00
32747;BME280;19118;50.860;13.662;2023-08-07T19:34:37;96623.56;;;13.84;100.00
32747;BME280;19118;50.860;13.662;2023-08-07T19:39:37;96615.38;;;13.85;100.00
32747;BME280;19118;50.860;13.662;2023-08-07T19:44:38;96622.28;;;14.40;100.00
32747;BME280;19118;50.860;13.662;2023-08-07T19:49:38;96630.66;;;14.13;100.00
32747;BME280;19118;50.860;13.662;2023-08-07T19:54:39;96637.03;;;14.24;100.00
32747;BME280;19118;50.860;13.662;2023-08-07T19:59:43;96639.47;;;14.25;100.00
32747;BME280;19118;50.860;13.662;2023-08-07T20:04:43;96629.28;;;14.22;100.00
32747;BME280;19118;50.860;13.662;2023-08-07T20:09:44;96628.63;;;14.39;100.00
32747;BME280;19118;50.860;13.662;2023-08-07T20:14:44;96647.25;;;14.39;100.00
32747;BME280;19118;50.860;13.662;2023-08-07T20:19:45;96640.94;;;14.51;100.00
32747;BME280;19118;50.860;13.662;2023-08-07T20:24:47;96646.94;;;14.47;100.00
32747;BME280;19118;50.860;13.662;2023-08-07T20:29:47;96640.44;;;14.43;100.00
32747;BME280;19118;50.860;13.662;2023-08-07T20:34:48;96642.84;;;14.33;100.00
32747;BME280;19118;50.860;13.662;2023-08-07T20:39:49;96646.94;;;14.59;100.00
32747;BME280;19118;50.860;13.662;2023-08-07T20:44:49;96659.66;;;14.45;100.00
32747;BME280;19118;50.860;13.662;2023-08-07T20:49:50;96662.16;;;14.16;100.00
32747;BME280;19118;50.860;13.662;2023-08-07T20:54:50;96666.47;;;14.41;100.00
32747;BME280;19118;50.860;13.662;2023-08-07T20:59:51;96661.63;;;14.49;100.00
32747;BME280;19118;50.860;13.662;2023-08-07T21:04:51;96674.88;;;14.38;100.00
32747;BME280;19118;50.860;13.662;2023-08-07T21:09:52;96687.28;;;14.44;100.00
32747;BME280;19118;50.860;13.662;2023-08-07T21:14:52;96687.00;;;14.22;100.00
32747;BME280;19118;50.860;13.662;2023-08-07T21:19:53;96691.41;;;14.16;100.00
32747;BME280;19118;50.860;13.662;2023-08-07T21:24:53;96693.94;;;13.93;100.00
32747;BME280;19118;50.860;13.662;2023-08-07T21:29:54;96698.00;;;13.65;100.00
32747;BME280;19118;50.860;13.662;2023-08-07T21:34:54;96675.69;;;13.85;100.00
32747;BME280;19118;50.860;13.662;2023-08-07T21:39:55;96682.19;;;14.01;100.00
32747;BME280;19118;50.860;13.662;2023-08-07T21:44:55;96679.38;;;14.25;100.00
32747;BME280;19118;50.860;13.662;2023-08-07T21:49:55;96682.28;;;14.36;100.00
32747;BME280;19118;50.860;13.662;2023-08-07T21:54:56;96677.97;;;14.23;100.00
32747;BME280;19118;50.860;13.662;2023-08-07T21:59:56;96681.44;;;14.23;100.00
32747;BME280;19118;50.860;13.662;2023-08-07T22:04:57;96687.09;;;14.15;100.00
32747;BME280;19118;50.860;13.662;2023-08-07T22:09:57;96688.31;;;14.43;100.00
32747;BME280;19118;50.860;13.662;2023-08-07T22:14:57;96667.31;;;14.53;100.00
32747;BME280;19118;50.860;13.662;2023-08-07T22:19:58;96682.81;;;14.56;100.00
32747;BME280;19118;50.860;13.662;2023-08-07T22:24:58;96690.41;;;14.41;100.00
32747;BME280;19118;50.860;13.662;2023-08-07T22:29:58;96689.50;;;14.47;100.00
32747;BME280;19118;50.860;13.662;2023-08-07T22:35:01;96693.84;;;14.30;100.00
32747;BME280;19118;50.860;13.662;2023-08-07T22:40:01;96692.03;;;14.42;100.00
32747;BME280;19118;50.860;13.662;2023-08-07T22:45:02;96686.22;;;13.91;100.00
32747;BME280;19118;50.860;13.662;2023-08-07T22:50:03;96690.63;;;13.67;100.00
32747;BME280;19118;50.860;13.662;2023-08-07T22:55:03;96687.25;;;13.60;100.00
32747;BME280;19118;50.860;13.662;2023-08-07T23:00:04;96685.84;;;13.58;100.00
32747;BME280;19118;50.860;13.662;2023-08-07T23:05:06;96693.34;;;13.79;100.00
32747;BME280;19118;50.860;13.662;2023-08-07T23:10:07;96681.47;;;13.82;100.00
32747;BME280;19118;50.860;13.662;2023-08-07T23:15:07;96683.75;;;13.78;100.00
32747;BME280;19118;50.860;13.662;2023-08-07T23:20:08;96674.84;;;13.73;100.00
32747;BME280;19118;50.860;13.662;2023-08-07T23:25:09;96675.22;;;13.88;100.00
32747;BME280;19118;50.860;13.662;2023-08-07T23:30:10;96676.34;;;14.10;100.00
32747;BME280;19118;50.860;13.662;2023-08-07T23:35:10;96677.38;;;14.09;100.00
32747;BME280;19118;50.860;13.662;2023-08-07T23:40:11;96683.22;;;13.69;100.00
32747;BME280;19118;50.860;13.662;2023-08-07T23:45:11;96678.53;;;13.72;100.00
32747;BME280;19118;50.860;13.662;2023-08-07T23:50:12;96683.19;;;13.58;100.00
32747;BME280;19118;50.860;13.662;2023-08-07T23:55:12;96680.03;;;13.49;100.00
